sensor_id;sensor_type;location;lat;lon;timestamp;temperature;humidity
30280;DHT22;17097;50.916;5.344;2022-11-12T00:00:02;8.50;99.90
30280;DHT22;17097;50.916;5.344;2022-11-12T00:02:30;8.40;99.90
30280;DHT22;17097;50.916;5.344;2022-11-12T00:04:56;8.40;99.90
30280;DHT22;17097;50.916;5.344;2022-11-12T00:07:24;8.40;99.90
30280;DHT22;17097;50.916;5.344;2022-11-12T00:09:50;8.40;99.90
30280;DHT22;17097;50.916;5.344;2022-11-12T00:12:16;8.40;99.90
30280;DHT22;17097;50.916;5.344;2022-11-12T00:14:41;8.30;99.90
30280;DHT22;17097;50.916;5.344;2022-11-12T00:17:07;8.40;99.90
30280;DHT22;17097;50.916;5.344;2022-11-12T00:19:32;8.40;99.90
30280;DHT22;17097;50.916;5.344;2022-11-12T00:21:58;8.40;99.90
30280;DHT22;17097;50.916;5.344;2022-11-12T00:24:24;8.30;99.90
30280;DHT22;17097;50.916;5.344;2022-11-12T00:26:51;8.20;99.90
30280;DHT22;17097;50.916;5.344;2022-11-12T00:29:17;8.30;99.90
30280;DHT22;17097;50.916;5.344;2022-11-12T00:31:42;8.20;99.90
30280;DHT22;17097;50.916;5.344;2022-11-12T00:34:07;8.20;99.90
30280;DHT22;17097;50.916;5.344;2022-11-12T00:36:33;8.30;99.90
30280;DHT22;17097;50.916;5.344;2022-11-12T00:38:59;8.20;99.90
30280;DHT22;17097;50.916;5.344;2022-11-12T00:41:24;8.10;99.90
30280;DHT22;17097;50.916;5.344;2022-11-12T00:43:50;8.10;99.90
30280;DHT22;17097;50.916;5.344;2022-11-12T00:46:19;8.10;99.90
30280;DHT22;17097;50.916;5.344;2022-11-12T00:48:45;8.20;99.90
30280;DHT22;17097;50.916;5.344;2022-11-12T00:51:10;8.10;99.90
30280;DHT22;17097;50.916;5.344;2022-11-12T00:53:36;8.10;99.90
30280;DHT22;17097;50.916;5.344;2022-11-12T00:56:03;7.90;99.90
30280;DHT22;17097;50.916;5.344;2022-11-12T00:58:29;7.90;99.90
30280;DHT22;17097;50.916;5.344;2022-11-12T01:00:55;7.90;99.90
30280;DHT22;17097;50.916;5.344;2022-11-12T01:03:20;7.90;99.90
30280;DHT22;17097;50.916;5.344;2022-11-12T01:05:46;7.90;99.90
30280;DHT22;17097;50.916;5.344;2022-11-12T01:08:12;7.90;99.90
30280;DHT22;17097;50.916;5.344;2022-11-12T01:10:38;7.80;99.90
30280;DHT22;17097;50.916;5.344;2022-11-12T01:13:05;7.80;99.90
30280;DHT22;17097;50.916;5.344;2022-11-12T01:15:38;7.90;99.90
30280;DHT22;17097;50.916;5.344;2022-11-12T01:18:07;7.90;99.90
30280;DHT22;17097;50.916;5.344;2022-11-12T01:20:34;7.90;99.90
30280;DHT22;17097;50.916;5.344;2022-11-12T01:23:01;7.90;99.90
30280;DHT22;17097;50.916;5.344;2022-11-12T01:25:29;7.80;99.90
30280;DHT22;17097;50.916;5.344;2022-11-12T01:27:55;7.90;99.90
30280;DHT22;17097;50.916;5.344;2022-11-12T01:30:21;7.90;99.90
30280;DHT22;17097;50.916;5.344;2022-11-12T01:32:49;7.90;99.90
30280;DHT22;17097;50.916;5.344;2022-11-12T01:35:15;7.90;99.90
30280;DHT22;17097;50.916;5.344;2022-11-12T01:37:40;7.90;99.90
30280;DHT22;17097;50.916;5.344;2022-11-12T01:40:06;7.80;99.90
30280;DHT22;17097;50.916;5.344;2022-11-12T01:42:32;7.90;99.90
30280;DHT22;17097;50.916;5.344;2022-11-12T01:44:58;7.80;99.90
30280;DHT22;17097;50.916;5.344;2022-11-12T01:47:25;7.80;99.90
30280;DHT22;17097;50.916;5.344;2022-11-12T01:49:54;7.70;99.90
30280;DHT22;17097;50.916;5.344;2022-11-12T01:52:31;7.80;99.90
30280;DHT22;17097;50.916;5.344;2022-11-12T01:55:02;7.70;99.90
30280;DHT22;17097;50.916;5.344;2022-11-12T01:57:30;7.70;99.90
30280;DHT22;17097;50.916;5.344;2022-11-12T02:00:00;7.70;99.90
30280;DHT22;17097;50.916;5.344;2022-11-12T02:02:27;7.70;99.90
30280;DHT22;17097;50.916;5.344;2022-11-12T02:04:53;7.70;99.90
30280;DHT22;17097;50.916;5.344;2022-11-12T02:07:20;7.60;99.90
30280;DHT22;17097;50.916;5.344;2022-11-12T02:09:47;7.60;99.90
30280;DHT22;17097;50.916;5.344;2022-11-12T02:12:13;7.60;99.90
30280;DHT22;17097;50.916;5.344;2022-11-12T02:14:59;7.60;99.90
30280;DHT22;17097;50.916;5.344;2022-11-12T02:17:24;7.60;99.90
30280;DHT22;17097;50.916;5.344;2022-11-12T02:19:51;7.60;99.90
30280;DHT22;17097;50.916;5.344;2022-11-12T02:22:16;7.50;99.90
30280;DHT22;17097;50.916;5.344;2022-11-12T02:24:42;7.60;99.90
30280;DHT22;17097;50.916;5.344;2022-11-12T02:27:07;7.70;99.90
30280;DHT22;17097;50.916;5.344;2022-11-12T02:29:35;7.60;99.90
30280;DHT22;17097;50.916;5.344;2022-11-12T02:32:11;7.50;99.90
30280;DHT22;17097;50.916;5.344;2022-11-12T02:34:36;7.50;99.90
30280;DHT22;17097;50.916;5.344;2022-11-12T02:37:02;7.40;99.90
30280;DHT22;17097;50.916;5.344;2022-11-12T02:39:27;7.50;99.90
30280;DHT22;17097;50.916;5.344;2022-11-12T02:41:53;7.50;99.90
30280;DHT22;17097;50.916;5.344;2022-11-12T02:44:18;7.50;99.90
30280;DHT22;17097;50.916;5.344;2022-11-12T02:46:44;7.50;99.90
30280;DHT22;17097;50.916;5.344;2022-11-12T02:49:09;7.60;99.90
30280;DHT22;17097;50.916;5.344;2022-11-12T02:51:35;7.60;99.90
30280;DHT22;17097;50.916;5.344;2022-11-12T02:54:01;7.50;99.90
30280;DHT22;17097;50.916;5.344;2022-11-12T02:56:29;7.60;99.90
30280;DHT22;17097;50.916;5.344;2022-11-12T02:58:55;7.60;99.90
30280;DHT22;17097;50.916;5.344;2022-11-12T03:01:21;7.50;99.90
30280;DHT22;17097;50.916;5.344;2022-11-12T03:03:47;7.50;99.90
30280;DHT22;17097;50.916;5.344;2022-11-12T03:06:13;7.40;99.90
30280;DHT22;17097;50.916;5.344;2022-11-12T03:08:39;7.40;99.90
30280;DHT22;17097;50.916;5.344;2022-11-12T03:11:06;7.30;99.90
30280;DHT22;17097;50.916;5.344;2022-11-12T03:13:32;7.30;99.90
30280;DHT22;17097;50.916;5.344;2022-11-12T03:16:01;7.40;99.90
30280;DHT22;17097;50.916;5.344;2022-11-12T03:18:26;7.40;99.90
30280;DHT22;17097;50.916;5.344;2022-11-12T03:20:52;7.40;99.90
30280;DHT22;17097;50.916;5.344;2022-11-12T03:23:18;7.40;99.90
30280;DHT22;17097;50.916;5.344;2022-11-12T03:25:44;7.40;99.90
30280;DHT22;17097;50.916;5.344;2022-11-12T03:28:10;7.40;99.90
30280;DHT22;17097;50.916;5.344;2022-11-12T03:30:40;7.40;99.90
30280;DHT22;17097;50.916;5.344;2022-11-12T03:33:07;7.40;99.90
30280;DHT22;17097;50.916;5.344;2022-11-12T03:35:33;7.40;99.90
30280;DHT22;17097;50.916;5.344;2022-11-12T03:38:02;7.40;99.90
30280;DHT22;17097;50.916;5.344;2022-11-12T03:40:28;7.30;99.90
30280;DHT22;17097;50.916;5.344;2022-11-12T03:42:55;7.30;99.90
30280;DHT22;17097;50.916;5.344;2022-11-12T03:45:21;7.30;99.90
30280;DHT22;17097;50.916;5.344;2022-11-12T03:47:48;7.40;99.90
30280;DHT22;17097;50.916;5.344;2022-11-12T03:50:16;7.30;99.90
30280;DHT22;17097;50.916;5.344;2022-11-12T03:52:45;7.30;99.90
30280;DHT22;17097;50.916;5.344;2022-11-12T03:55:11;7.30;99.90
30280;DHT22;17097;50.916;5.344;2022-11-12T03:57:37;7.40;99.90
30280;DHT22;17097;50.916;5.344;2022-11-12T04:00:04;7.20;99.90
30280;DHT22;17097;50.916;5.344;2022-11-12T04:02:30;7.20;99.90
30280;DHT22;17097;50.916;5.344;2022-11-12T04:04:56;7.30;99.90
30280;DHT22;17097;50.916;5.344;2022-11-12T04:07:40;7.30;99.90
30280;DHT22;17097;50.916;5.344;2022-11-12T04:10:24;7.30;99.90
30280;DHT22;17097;50.916;5.344;2022-11-12T04:12:50;7.30;99.90
30280;DHT22;17097;50.916;5.344;2022-11-12T04:15:37;7.30;99.90
30280;DHT22;17097;50.916;5.344;2022-11-12T04:18:05;7.20;99.90
30280;DHT22;17097;50.916;5.344;2022-11-12T04:20:49;7.10;99.90
30280;DHT22;17097;50.916;5.344;2022-11-12T04:23:36;7.10;99.90
30280;DHT22;17097;50.916;5.344;2022-11-12T04:26:02;7.10;99.90
30280;DHT22;17097;50.916;5.344;2022-11-12T04:28:46;7.10;99.90
30280;DHT22;17097;50.916;5.344;2022-11-12T04:31:30;7.00;99.90
30280;DHT22;17097;50.916;5.344;2022-11-12T04:33:55;7.10;99.90
30280;DHT22;17097;50.916;5.344;2022-11-12T04:36:41;7.10;99.90
30280;DHT22;17097;50.916;5.344;2022-11-12T04:39:06;7.00;99.90
30280;DHT22;17097;50.916;5.344;2022-11-12T04:41:32;7.00;99.90
30280;DHT22;17097;50.916;5.344;2022-11-12T04:44:16;7.00;99.90
30280;DHT22;17097;50.916;5.344;2022-11-12T04:47:00;6.90;99.90
30280;DHT22;17097;50.916;5.344;2022-11-12T04:49:26;6.90;99.90
30280;DHT22;17097;50.916;5.344;2022-11-12T04:51:52;6.90;99.90
30280;DHT22;17097;50.916;5.344;2022-11-12T04:54:30;6.90;99.90
30280;DHT22;17097;50.916;5.344;2022-11-12T04:56:58;6.90;99.90
30280;DHT22;17097;50.916;5.344;2022-11-12T04:59:24;6.90;99.90
30280;DHT22;17097;50.916;5.344;2022-11-12T05:01:50;6.90;99.90
30280;DHT22;17097;50.916;5.344;2022-11-12T05:04:18;6.90;99.90
30280;DHT22;17097;50.916;5.344;2022-11-12T05:06:44;6.90;99.90
30280;DHT22;17097;50.916;5.344;2022-11-12T05:09:16;6.90;99.90
30280;DHT22;17097;50.916;5.344;2022-11-12T05:11:41;6.90;99.90
30280;DHT22;17097;50.916;5.344;2022-11-12T05:14:07;6.90;99.90
30280;DHT22;17097;50.916;5.344;2022-11-12T05:16:32;6.90;99.90
30280;DHT22;17097;50.916;5.344;2022-11-12T05:18:58;7.00;99.90
30280;DHT22;17097;50.916;5.344;2022-11-12T05:21:23;6.90;99.90
30280;DHT22;17097;50.916;5.344;2022-11-12T05:24:07;6.90;99.90
30280;DHT22;17097;50.916;5.344;2022-11-12T05:26:33;6.90;99.90
30280;DHT22;17097;50.916;5.344;2022-11-12T05:28:59;6.90;99.90
30280;DHT22;17097;50.916;5.344;2022-11-12T05:31:25;6.90;99.90
30280;DHT22;17097;50.916;5.344;2022-11-12T05:33:51;6.90;99.90
30280;DHT22;17097;50.916;5.344;2022-11-12T05:36:17;6.90;99.90
30280;DHT22;17097;50.916;5.344;2022-11-12T05:38:43;6.90;99.90
30280;DHT22;17097;50.916;5.344;2022-11-12T05:41:08;6.90;99.90
30280;DHT22;17097;50.916;5.344;2022-11-12T05:43:34;6.90;99.90
30280;DHT22;17097;50.916;5.344;2022-11-12T05:46:00;7.00;99.90
30280;DHT22;17097;50.916;5.344;2022-11-12T05:48:26;6.90;99.90
30280;DHT22;17097;50.916;5.344;2022-11-12T05:50:53;6.80;99.90
30280;DHT22;17097;50.916;5.344;2022-11-12T05:53:19;6.90;99.90
30280;DHT22;17097;50.916;5.344;2022-11-12T05:55:45;6.90;99.90
30280;DHT22;17097;50.916;5.344;2022-11-12T05:58:11;7.00;99.90
30280;DHT22;17097;50.916;5.344;2022-11-12T06:00:37;7.00;99.90
30280;DHT22;17097;50.916;5.344;2022-11-12T06:03:08;7.00;99.90
30280;DHT22;17097;50.916;5.344;2022-11-12T06:05:35;7.00;99.90
30280;DHT22;17097;50.916;5.344;2022-11-12T06:08:04;7.00;99.90
30280;DHT22;17097;50.916;5.344;2022-11-12T06:10:30;7.00;99.90
30280;DHT22;17097;50.916;5.344;2022-11-12T06:12:57;7.00;99.90
30280;DHT22;17097;50.916;5.344;2022-11-12T06:15:23;7.00;99.90
30280;DHT22;17097;50.916;5.344;2022-11-12T06:17:52;7.00;99.90
30280;DHT22;17097;50.916;5.344;2022-11-12T06:20:18;7.00;99.90
30280;DHT22;17097;50.916;5.344;2022-11-12T06:22:44;7.00;99.90
30280;DHT22;17097;50.916;5.344;2022-11-12T06:25:09;7.00;99.90
30280;DHT22;17097;50.916;5.344;2022-11-12T06:27:35;7.10;99.90
30280;DHT22;17097;50.916;5.344;2022-11-12T06:30:02;7.10;99.90
30280;DHT22;17097;50.916;5.344;2022-11-12T06:32:28;7.00;99.90
30280;DHT22;17097;50.916;5.344;2022-11-12T06:34:54;7.10;99.90
30280;DHT22;17097;50.916;5.344;2022-11-12T06:37:22;7.00;99.90
30280;DHT22;17097;50.916;5.344;2022-11-12T06:39:48;7.00;99.90
30280;DHT22;17097;50.916;5.344;2022-11-12T06:42:15;7.00;99.90
30280;DHT22;17097;50.916;5.344;2022-11-12T06:44:41;7.10;99.90
30280;DHT22;17097;50.916;5.344;2022-11-12T06:47:06;7.20;99.90
30280;DHT22;17097;50.916;5.344;2022-11-12T06:49:32;7.20;99.90
30280;DHT22;17097;50.916;5.344;2022-11-12T06:51:58;7.20;99.90
30280;DHT22;17097;50.916;5.344;2022-11-12T06:54:24;7.20;99.90
30280;DHT22;17097;50.916;5.344;2022-11-12T06:56:52;7.20;99.90
30280;DHT22;17097;50.916;5.344;2022-11-12T06:59:17;7.20;99.90
30280;DHT22;17097;50.916;5.344;2022-11-12T07:01:43;7.20;99.90
30280;DHT22;17097;50.916;5.344;2022-11-12T07:04:08;7.20;99.90
30280;DHT22;17097;50.916;5.344;2022-11-12T07:06:35;7.20;99.90
30280;DHT22;17097;50.916;5.344;2022-11-12T07:09:01;7.20;99.90
30280;DHT22;17097;50.916;5.344;2022-11-12T07:11:27;7.20;99.90
30280;DHT22;17097;50.916;5.344;2022-11-12T07:13:53;7.30;99.90
30280;DHT22;17097;50.916;5.344;2022-11-12T07:16:21;7.20;99.90
30280;DHT22;17097;50.916;5.344;2022-11-12T07:18:47;7.20;99.90
30280;DHT22;17097;50.916;5.344;2022-11-12T07:21:14;7.30;99.90
30280;DHT22;17097;50.916;5.344;2022-11-12T07:23:40;7.40;99.90
30280;DHT22;17097;50.916;5.344;2022-11-12T07:26:06;7.50;99.90
30280;DHT22;17097;50.916;5.344;2022-11-12T07:28:32;7.50;99.90
30280;DHT22;17097;50.916;5.344;2022-11-12T07:31:03;7.60;99.90
30280;DHT22;17097;50.916;5.344;2022-11-12T07:33:29;7.70;99.90
30280;DHT22;17097;50.916;5.344;2022-11-12T07:35:58;7.80;99.90
30280;DHT22;17097;50.916;5.344;2022-11-12T07:38:27;7.90;99.90
30280;DHT22;17097;50.916;5.344;2022-11-12T07:43:29;8.50;99.90
30280;DHT22;17097;50.916;5.344;2022-11-12T07:46:07;8.80;99.90
30280;DHT22;17097;50.916;5.344;2022-11-12T07:48:34;9.00;99.90
30280;DHT22;17097;50.916;5.344;2022-11-12T07:51:33;9.20;99.90
30280;DHT22;17097;50.916;5.344;2022-11-12T07:53:52;9.40;99.90
30280;DHT22;17097;50.916;5.344;2022-11-12T07:56:22;9.60;99.90
30280;DHT22;17097;50.916;5.344;2022-11-12T07:58:47;9.80;99.90
30280;DHT22;17097;50.916;5.344;2022-11-12T08:03:59;10.90;99.90
30280;DHT22;17097;50.916;5.344;2022-11-12T08:06:26;11.90;99.90
30280;DHT22;17097;50.916;5.344;2022-11-12T08:08:52;12.90;99.90
30280;DHT22;17097;50.916;5.344;2022-11-12T08:11:21;13.70;99.90
30280;DHT22;17097;50.916;5.344;2022-11-12T08:13:46;14.50;99.90
30280;DHT22;17097;50.916;5.344;2022-11-12T08:16:12;15.40;99.90
30280;DHT22;17097;50.916;5.344;2022-11-12T08:18:40;16.50;99.90
30280;DHT22;17097;50.916;5.344;2022-11-12T08:21:06;17.20;99.90
30280;DHT22;17097;50.916;5.344;2022-11-12T08:23:32;17.40;99.90
30280;DHT22;17097;50.916;5.344;2022-11-12T08:26:01;17.40;99.90
30280;DHT22;17097;50.916;5.344;2022-11-12T08:28:27;16.90;99.90
30280;DHT22;17097;50.916;5.344;2022-11-12T08:30:53;16.70;99.90
30280;DHT22;17097;50.916;5.344;2022-11-12T08:33:18;16.40;99.90
30280;DHT22;17097;50.916;5.344;2022-11-12T08:35:44;16.10;99.90
30280;DHT22;17097;50.916;5.344;2022-11-12T08:38:10;15.90;99.90
30280;DHT22;17097;50.916;5.344;2022-11-12T08:40:38;15.90;99.90
30280;DHT22;17097;50.916;5.344;2022-11-12T08:43:07;15.80;99.90
30280;DHT22;17097;50.916;5.344;2022-11-12T08:45:36;15.90;99.90
30280;DHT22;17097;50.916;5.344;2022-11-12T08:48:04;15.90;99.90
30280;DHT22;17097;50.916;5.344;2022-11-12T08:50:31;16.30;99.90
30280;DHT22;17097;50.916;5.344;2022-11-12T08:53:00;16.20;99.90
30280;DHT22;17097;50.916;5.344;2022-11-12T08:55:26;16.40;99.90
30280;DHT22;17097;50.916;5.344;2022-11-12T08:57:52;16.80;99.90
30280;DHT22;17097;50.916;5.344;2022-11-12T09:00:18;17.10;99.90
30280;DHT22;17097;50.916;5.344;2022-11-12T09:02:44;17.20;99.90
30280;DHT22;17097;50.916;5.344;2022-11-12T09:05:09;17.50;99.90
30280;DHT22;17097;50.916;5.344;2022-11-12T09:07:35;17.40;99.90
30280;DHT22;17097;50.916;5.344;2022-11-12T09:10:00;17.20;99.90
30280;DHT22;17097;50.916;5.344;2022-11-12T09:12:26;17.10;99.90
30280;DHT22;17097;50.916;5.344;2022-11-12T09:14:51;17.00;99.90
30280;DHT22;17097;50.916;5.344;2022-11-12T09:17:17;17.10;99.90
30280;DHT22;17097;50.916;5.344;2022-11-12T09:19:42;17.00;99.90
30280;DHT22;17097;50.916;5.344;2022-11-12T09:22:08;17.00;99.90
30280;DHT22;17097;50.916;5.344;2022-11-12T09:24:34;17.10;99.90
30280;DHT22;17097;50.916;5.344;2022-11-12T09:27:00;17.30;99.90
30280;DHT22;17097;50.916;5.344;2022-11-12T09:29:28;17.50;99.90
30280;DHT22;17097;50.916;5.344;2022-11-12T09:31:54;17.60;99.90
30280;DHT22;17097;50.916;5.344;2022-11-12T09:34:20;17.90;99.90
30280;DHT22;17097;50.916;5.344;2022-11-12T09:36:45;18.50;99.90
30280;DHT22;17097;50.916;5.344;2022-11-12T09:39:11;19.00;99.90
30280;DHT22;17097;50.916;5.344;2022-11-12T09:41:37;19.20;99.90
30280;DHT22;17097;50.916;5.344;2022-11-12T09:44:04;19.20;99.90
30280;DHT22;17097;50.916;5.344;2022-11-12T09:46:44;19.50;99.90
30280;DHT22;17097;50.916;5.344;2022-11-12T09:49:28;19.80;99.90
30280;DHT22;17097;50.916;5.344;2022-11-12T09:51:56;20.40;99.90
30280;DHT22;17097;50.916;5.344;2022-11-12T09:54:25;21.30;99.90
30280;DHT22;17097;50.916;5.344;2022-11-12T09:56:51;22.00;98.50
30280;DHT22;17097;50.916;5.344;2022-11-12T09:59:17;22.40;97.20
30280;DHT22;17097;50.916;5.344;2022-11-12T10:01:52;22.80;97.20
30280;DHT22;17097;50.916;5.344;2022-11-12T10:07:05;23.90;93.20
30280;DHT22;17097;50.916;5.344;2022-11-12T10:09:39;24.20;92.10
30280;DHT22;17097;50.916;5.344;2022-11-12T10:12:11;24.50;91.20
30280;DHT22;17097;50.916;5.344;2022-11-12T10:16:01;24.50;90.70
30280;DHT22;17097;50.916;5.344;2022-11-12T10:20:49;24.50;90.80
30280;DHT22;17097;50.916;5.344;2022-11-12T10:23:18;24.10;92.50
30280;DHT22;17097;50.916;5.344;2022-11-12T10:25:46;23.80;93.40
30280;DHT22;17097;50.916;5.344;2022-11-12T10:28:58;23.90;92.80
30280;DHT22;17097;50.916;5.344;2022-11-12T10:31:36;24.00;92.10
30280;DHT22;17097;50.916;5.344;2022-11-12T10:34:01;24.10;91.70
30280;DHT22;17097;50.916;5.344;2022-11-12T10:36:34;24.00;92.80
30280;DHT22;17097;50.916;5.344;2022-11-12T10:39:01;23.90;94.00
30280;DHT22;17097;50.916;5.344;2022-11-12T10:41:30;23.70;93.90
30280;DHT22;17097;50.916;5.344;2022-11-12T10:44:00;23.70;93.50
30280;DHT22;17097;50.916;5.344;2022-11-12T10:46:30;23.50;94.00
30280;DHT22;17097;50.916;5.344;2022-11-12T10:49:00;23.20;95.00
30280;DHT22;17097;50.916;5.344;2022-11-12T10:51:34;23.30;94.20
30280;DHT22;17097;50.916;5.344;2022-11-12T10:56:44;23.20;93.70
30280;DHT22;17097;50.916;5.344;2022-11-12T10:59:14;23.20;94.00
30280;DHT22;17097;50.916;5.344;2022-11-12T11:01:41;22.90;96.80
30280;DHT22;17097;50.916;5.344;2022-11-12T11:04:14;22.80;96.30
30280;DHT22;17097;50.916;5.344;2022-11-12T11:06:43;22.90;96.00
30280;DHT22;17097;50.916;5.344;2022-11-12T11:11:48;22.70;96.50
30280;DHT22;17097;50.916;5.344;2022-11-12T11:19:17;22.20;99.20
30280;DHT22;17097;50.916;5.344;2022-11-12T11:34:45;22.20;99.20
30280;DHT22;17097;50.916;5.344;2022-11-12T11:37:24;22.40;99.00
30280;DHT22;17097;50.916;5.344;2022-11-12T11:40:03;22.40;98.80
30280;DHT22;17097;50.916;5.344;2022-11-12T11:48:15;22.40;99.80
30280;DHT22;17097;50.916;5.344;2022-11-12T11:51:22;22.80;99.20
30280;DHT22;17097;50.916;5.344;2022-11-12T11:53:51;23.10;98.30
30280;DHT22;17097;50.916;5.344;2022-11-12T11:56:24;23.50;97.50
30280;DHT22;17097;50.916;5.344;2022-11-12T12:01:25;24.30;95.80
30280;DHT22;17097;50.916;5.344;2022-11-12T12:06:26;24.80;95.00
30280;DHT22;17097;50.916;5.344;2022-11-12T12:11:35;25.00;94.00
30280;DHT22;17097;50.916;5.344;2022-11-12T12:21:50;25.00;93.90
30280;DHT22;17097;50.916;5.344;2022-11-12T12:24:18;25.20;93.30
30280;DHT22;17097;50.916;5.344;2022-11-12T12:26:49;25.60;93.30
30280;DHT22;17097;50.916;5.344;2022-11-12T12:32:26;24.90;93.50
30280;DHT22;17097;50.916;5.344;2022-11-12T12:34:36;24.80;94.30
30280;DHT22;17097;50.916;5.344;2022-11-12T12:42:17;23.70;94.00
30280;DHT22;17097;50.916;5.344;2022-11-12T12:44:54;23.50;94.30
30280;DHT22;17097;50.916;5.344;2022-11-12T12:47:39;23.30;94.60
30280;DHT22;17097;50.916;5.344;2022-11-12T12:50:13;23.20;94.90
30280;DHT22;17097;50.916;5.344;2022-11-12T12:55:35;22.60;95.70
30280;DHT22;17097;50.916;5.344;2022-11-12T12:58:01;22.10;97.10
30280;DHT22;17097;50.916;5.344;2022-11-12T13:00:48;22.20;97.10
30280;DHT22;17097;50.916;5.344;2022-11-12T13:03:14;22.10;97.20
30280;DHT22;17097;50.916;5.344;2022-11-12T13:06:06;21.90;97.90
30280;DHT22;17097;50.916;5.344;2022-11-12T13:08:35;21.90;98.10
30280;DHT22;17097;50.916;5.344;2022-11-12T13:11:01;21.60;99.10
30280;DHT22;17097;50.916;5.344;2022-11-12T13:13:28;21.30;99.50
30280;DHT22;17097;50.916;5.344;2022-11-12T13:15:55;21.40;99.80
30280;DHT22;17097;50.916;5.344;2022-11-12T13:21:12;21.50;99.90
30280;DHT22;17097;50.916;5.344;2022-11-12T13:34:38;21.40;99.90
30280;DHT22;17097;50.916;5.344;2022-11-12T13:37:04;21.40;99.90
30280;DHT22;17097;50.916;5.344;2022-11-12T13:39:36;21.40;99.90
30280;DHT22;17097;50.916;5.344;2022-11-12T13:42:14;21.40;99.90
30280;DHT22;17097;50.916;5.344;2022-11-12T13:44:59;21.40;99.90
30280;DHT22;17097;50.916;5.344;2022-11-12T13:47:25;21.30;99.90
30280;DHT22;17097;50.916;5.344;2022-11-12T13:49:54;21.40;99.90
30280;DHT22;17097;50.916;5.344;2022-11-12T13:52:20;21.40;99.90
30280;DHT22;17097;50.916;5.344;2022-11-12T13:55:05;21.20;99.90
30280;DHT22;17097;50.916;5.344;2022-11-12T13:57:31;21.10;99.90
30280;DHT22;17097;50.916;5.344;2022-11-12T14:02:42;20.70;99.90
30280;DHT22;17097;50.916;5.344;2022-11-12T14:05:16;20.70;99.90
30280;DHT22;17097;50.916;5.344;2022-11-12T14:10:32;20.60;99.90
30280;DHT22;17097;50.916;5.344;2022-11-12T14:22:49;20.50;99.90
30280;DHT22;17097;50.916;5.344;2022-11-12T14:25:24;20.40;99.90
30280;DHT22;17097;50.916;5.344;2022-11-12T14:27:51;20.30;99.90
30280;DHT22;17097;50.916;5.344;2022-11-12T14:30:21;20.10;99.90
30280;DHT22;17097;50.916;5.344;2022-11-12T14:32:52;20.00;99.90
30280;DHT22;17097;50.916;5.344;2022-11-12T14:37:53;19.80;99.90
30280;DHT22;17097;50.916;5.344;2022-11-12T14:40:20;19.80;99.90
30280;DHT22;17097;50.916;5.344;2022-11-12T14:42:47;19.60;99.90
30280;DHT22;17097;50.916;5.344;2022-11-12T14:45:14;19.50;99.90
30280;DHT22;17097;50.916;5.344;2022-11-12T14:47:41;19.40;99.90
30280;DHT22;17097;50.916;5.344;2022-11-12T14:50:10;19.40;99.90
30280;DHT22;17097;50.916;5.344;2022-11-12T14:52:39;19.40;99.90
30280;DHT22;17097;50.916;5.344;2022-11-12T14:55:11;19.40;99.90
30280;DHT22;17097;50.916;5.344;2022-11-12T14:57:39;19.30;99.90
30280;DHT22;17097;50.916;5.344;2022-11-12T15:00:18;19.30;99.90
30280;DHT22;17097;50.916;5.344;2022-11-12T15:02:45;19.20;99.90
30280;DHT22;17097;50.916;5.344;2022-11-12T15:05:17;19.20;99.90
30280;DHT22;17097;50.916;5.344;2022-11-12T15:07:51;19.00;99.90
30280;DHT22;17097;50.916;5.344;2022-11-12T15:13:03;18.80;99.90
30280;DHT22;17097;50.916;5.344;2022-11-12T15:15:29;18.70;99.90
30280;DHT22;17097;50.916;5.344;2022-11-12T15:17:56;18.60;99.90
30280;DHT22;17097;50.916;5.344;2022-11-12T15:20:22;18.40;99.90
30280;DHT22;17097;50.916;5.344;2022-11-12T15:22:51;18.40;99.90
30280;DHT22;17097;50.916;5.344;2022-11-12T15:25:25;18.20;99.90
30280;DHT22;17097;50.916;5.344;2022-11-12T15:27:51;18.20;99.90
30280;DHT22;17097;50.916;5.344;2022-11-12T15:32:42;18.10;99.90
30280;DHT22;17097;50.916;5.344;2022-11-12T15:37:49;17.80;99.90
30280;DHT22;17097;50.916;5.344;2022-11-12T15:40:16;17.70;99.90
30280;DHT22;17097;50.916;5.344;2022-11-12T15:42:42;17.70;99.90
30280;DHT22;17097;50.916;5.344;2022-11-12T15:45:11;17.70;99.90
30280;DHT22;17097;50.916;5.344;2022-11-12T15:47:40;17.70;99.90
30280;DHT22;17097;50.916;5.344;2022-11-12T15:52:40;17.50;99.90
30280;DHT22;17097;50.916;5.344;2022-11-12T15:55:06;17.40;99.90
30280;DHT22;17097;50.916;5.344;2022-11-12T15:57:33;17.30;99.90
30280;DHT22;17097;50.916;5.344;2022-11-12T16:00:05;17.20;99.90
30280;DHT22;17097;50.916;5.344;2022-11-12T16:02:34;17.10;99.90
30280;DHT22;17097;50.916;5.344;2022-11-12T16:05:00;17.10;99.90
30280;DHT22;17097;50.916;5.344;2022-11-12T16:07:26;16.90;99.90
30280;DHT22;17097;50.916;5.344;2022-11-12T16:09:52;16.80;99.90
30280;DHT22;17097;50.916;5.344;2022-11-12T16:12:18;16.70;99.90
30280;DHT22;17097;50.916;5.344;2022-11-12T16:14:43;16.50;99.90
30280;DHT22;17097;50.916;5.344;2022-11-12T16:17:10;16.40;99.90
30280;DHT22;17097;50.916;5.344;2022-11-12T16:19:37;16.30;99.90
30280;DHT22;17097;50.916;5.344;2022-11-12T16:22:03;16.20;99.90
30280;DHT22;17097;50.916;5.344;2022-11-12T16:24:37;16.10;99.90
30280;DHT22;17097;50.916;5.344;2022-11-12T16:27:05;16.00;99.90
30280;DHT22;17097;50.916;5.344;2022-11-12T16:29:32;15.90;99.90
30280;DHT22;17097;50.916;5.344;2022-11-12T16:31:58;15.90;99.90
30280;DHT22;17097;50.916;5.344;2022-11-12T16:34:23;15.70;99.90
30280;DHT22;17097;50.916;5.344;2022-11-12T16:36:49;15.70;99.90
30280;DHT22;17097;50.916;5.344;2022-11-12T16:39:15;15.60;99.90
30280;DHT22;17097;50.916;5.344;2022-11-12T16:41:40;15.50;99.90
30280;DHT22;17097;50.916;5.344;2022-11-12T16:44:08;15.50;99.90
30280;DHT22;17097;50.916;5.344;2022-11-12T16:46:37;15.50;99.90
30280;DHT22;17097;50.916;5.344;2022-11-12T16:49:05;15.40;99.90
30280;DHT22;17097;50.916;5.344;2022-11-12T16:51:31;15.40;99.90
30280;DHT22;17097;50.916;5.344;2022-11-12T16:53:56;15.40;99.90
30280;DHT22;17097;50.916;5.344;2022-11-12T16:56:22;15.40;99.90
30280;DHT22;17097;50.916;5.344;2022-11-12T16:58:48;15.20;99.90
30280;DHT22;17097;50.916;5.344;2022-11-12T17:01:18;15.10;99.90
30280;DHT22;17097;50.916;5.344;2022-11-12T17:03:48;15.10;99.90
30280;DHT22;17097;50.916;5.344;2022-11-12T17:06:13;15.00;99.90
30280;DHT22;17097;50.916;5.344;2022-11-12T17:08:39;14.80;99.90
30280;DHT22;17097;50.916;5.344;2022-11-12T17:11:06;14.80;99.90
30280;DHT22;17097;50.916;5.344;2022-11-12T17:13:33;14.70;99.90
30280;DHT22;17097;50.916;5.344;2022-11-12T17:15:59;14.70;99.90
30280;DHT22;17097;50.916;5.344;2022-11-12T17:18:25;14.60;99.90
30280;DHT22;17097;50.916;5.344;2022-11-12T17:20:50;14.50;99.90
30280;DHT22;17097;50.916;5.344;2022-11-12T17:23:16;14.50;99.90
30280;DHT22;17097;50.916;5.344;2022-11-12T17:25:42;14.50;99.90
30280;DHT22;17097;50.916;5.344;2022-11-12T17:28:08;14.50;99.90
30280;DHT22;17097;50.916;5.344;2022-11-12T17:30:34;14.50;99.90
30280;DHT22;17097;50.916;5.344;2022-11-12T17:32:59;14.40;99.90